METAR Data
IDs: Format: Raw Decoded Include TAF

Data at: 0123 UTC 24 Sep 2018

KPMV 240115Z AUTO 15005KT 10SM CLR 20/13 A2994 RMK AO2 T01950130
KPMV 240055Z AUTO 15005KT 10SM CLR 21/13 A2994 RMK AO2 T02070129
KPMV 240035Z AUTO 15007KT 10SM CLR 21/13 A2994 RMK AO2 T02130130
KPMV 240015Z AUTO 15006KT 10SM CLR 22/13 A2994 RMK AO2 T02210134
KPMV 232350Z AUTO 15006KT 10SM CLR 23/14 A2994 RMK AO2 T02320135 10261 20232
KPMV 232335Z AUTO 15007KT 10SM CLR 24/14 A2994 RMK AO2 T02390136
KPMV 232310Z AUTO 15009G16KT 10SM CLR 25/14 A2993 RMK AO2 T02470139
KPMV 232250Z AUTO 15010G16KT 10SM CLR 25/14 A2993 RMK AO2 T02520140
KPMV 232235Z AUTO 17010G17KT 10SM CLR 26/14 A2994 RMK AO2 T02550136
KPMV 232210Z AUTO 17011G16KT 10SM CLR 26/14 A2993 RMK AO2 T02570135
KPMV 232155Z AUTO 15012G16KT 10SM CLR 26/14 A2994 RMK AO2 T02570140
KPMV 232135Z AUTO 15013G17KT 10SM CLR 26/14 A2994 RMK AO2 T02590140
KPMV 232110Z AUTO 15011G18KT 10SM CLR 26/15 A2996 RMK AO2 T02600145
KPMV 232100Z AUTO 15006G16KT 10SM CLR 26/15 A2996 RMK AO2 T02590146
KPMV 232030Z AUTO 16011G16KT 10SM CLR 26/15 A2997 RMK AO2 T02570150
KPMV 232010Z AUTO 15012G16KT 10SM CLR 26/16 A2997 RMK AO2 T02590156
KPMV 231940Z AUTO 15010G16KT 10SM CLR 25/15 A2998 RMK AO2 T02530152
KPMV 231920Z AUTO 16008G15KT 10SM CLR 25/15 A3000 RMK AO2 T02510150
KPMV 231855Z AUTO 15007G15KT 10SM CLR 25/15 A3001 RMK AO2 T02460146
KPMV 231815Z AUTO 15008KT 10SM CLR 24/15 A3003 RMK AO2 T02400151
KPMV 231755Z AUTO 13008KT 10SM CLR 23/14 A3004 RMK AO2 T02340143 10234 20107
KPMV 231735Z AUTO 14006KT 10SM CLR 23/15 A3004 RMK AO2 T02300145
KPMV 231720Z AUTO 14005KT 10SM CLR 23/14 A3004 RMK AO2 T02260143
KPMV 231655Z AUTO 16007KT 10SM CLR 22/14 A3005 RMK AO2 T02240143
KPMV 231635Z AUTO 15008KT 10SM CLR 22/14 A3006 RMK AO2 T02160141
KPMV 231615Z AUTO 17007KT 10SM CLR 21/14 A3006 RMK AO2 T02070137
KPMV 231555Z AUTO 17007KT 10SM CLR 20/14 A3006 RMK AO2 T02000139
KPMV 231535Z AUTO 16007KT 10SM CLR 19/14 A3007 RMK AO2 T01910136
KPMV 231515Z AUTO 18007KT 10SM CLR 18/14 A3007 RMK AO2 T01830135
KPMV 231455Z AUTO 16005KT 10SM CLR 17/13 A3007 RMK AO2 T01720130
KPMV 231435Z AUTO 17008KT 10SM CLR 17/13 A3007 RMK AO2 T01650128
KPMV 231415Z AUTO 17006KT 10SM CLR 15/12 A3007 RMK AO2 T01530122
KPMV 231355Z AUTO 15006KT 10SM CLR 14/12 A3006 RMK AO2 T01430119
KPMV 231335Z AUTO 15007KT 10SM CLR 13/11 A3006 RMK AO2 T01320114
KPMV 231315Z AUTO 15007KT 10SM CLR 12/11 A3006 RMK AO2 T01210110
KPMV 231255Z AUTO 15007KT 10SM CLR 11/11 A3006 RMK AO2 T01140106
KPMV 231235Z AUTO 14007KT 10SM CLR 11/10 A3006 RMK AO2 T01100103
KPMV 231215Z AUTO 14006KT 10SM CLR 11/10 A3006 RMK AO2 T01080100
KPMV 231150Z AUTO 14006KT 10SM CLR 11/10 A3007 RMK AO2 T01090096 10123 20102
KPMV 231135Z AUTO 15007KT 10SM CLR 11/10 A3006 RMK AO2 T01110098
KPMV 231115Z AUTO 15007KT 10SM CLR 11/10 A3006 RMK AO2 T01090100
KPMV 231055Z AUTO 14006KT 10SM CLR 11/10 A3006 RMK AO2 T01060098
KPMV 231035Z AUTO 14005KT 10SM CLR 10/09 A3006 RMK AO2 T01020092
KPMV 231015Z AUTO 14003KT 10SM CLR 11/09 A3006 RMK AO2 T01050091
KPMV 230955Z AUTO 15003KT 10SM CLR 11/09 A3007 RMK AO2 T01100091
KPMV 230935Z AUTO 15004KT 10SM CLR 11/09 A3006 RMK AO2 T01060091
KPMV 230915Z AUTO 17005KT 10SM CLR 11/09 A3006 RMK AO2 T01120092
KPMV 230850Z AUTO 17005KT 10SM CLR 12/10 A3006 RMK AO2 T01160095
KPMV 230835Z AUTO 17006KT 10SM CLR 12/10 A3006 RMK AO2 T01150095
KPMV 230815Z AUTO 17005KT 10SM CLR 11/10 A3007 RMK AO2 T01140095
KPMV 230755Z AUTO 15005KT 10SM CLR 12/10 A3007 RMK AO2 T01200098
KPMV 230735Z AUTO 16005KT 10SM CLR 12/10 A3007 RMK AO2 T01200098
KPMV 230715Z AUTO 15005KT 10SM CLR 12/10 A3007 RMK AO2 T01210099
KPMV 230655Z AUTO 16005KT 10SM CLR 12/10 A3007 RMK AO2 T01220100
KPMV 230635Z AUTO 16006KT 10SM CLR 12/10 A3008 RMK AO2 T01200101
KPMV 230615Z AUTO 16004KT 10SM CLR 12/10 A3008 RMK AO2 T01230103
KPMV 230555Z AUTO 16005KT 10SM CLR 12/10 A3007 RMK AO2 T01200101 10190 20120 402150072
KPMV 230535Z AUTO 15004KT 10SM CLR 12/10 A3008 RMK AO2 T01220104
KPMV 230515Z AUTO 15004KT 10SM CLR 13/11 A3008 RMK AO2 T01260105
KPMV 230455Z AUTO 16005KT 10SM CLR 13/11 A3008 RMK AO2 T01300105
KPMV 230435Z AUTO 15005KT 10SM CLR 13/11 A3009 RMK AO2 T01300105
KPMV 230415Z AUTO 15004KT 10SM CLR 14/11 A3009 RMK AO2 T01350105
KPMV 230355Z AUTO 15006KT 10SM CLR 14/11 A3009 RMK AO2 T01400106
KPMV 230335Z AUTO 15005KT 10SM CLR 14/11 A3009 RMK AO2 T01400105
KPMV 230315Z AUTO 15005KT 10SM CLR 14/10 A3009 RMK AO2 T01430100
KPMV 230255Z AUTO 16006KT 10SM CLR 15/10 A3009 RMK AO2 T01480097
KPMV 230235Z AUTO 15006KT 10SM CLR 15/10 A3009 RMK AO2 T01500095
KPMV 230215Z AUTO 16006KT 10SM CLR 16/09 A3009 RMK AO2 T01560093
KPMV 230155Z AUTO 16006KT 10SM CLR 16/09 A3009 RMK AO2 T01580092
KPMV 230130Z AUTO 16006KT 10SM CLR 16/09 A3009 RMK AO2 T01640090
KPMV 230115Z AUTO 16006KT 10SM CLR 17/09 A3009 RMK AO2 T01660090
KPMV 230055Z AUTO 16006KT 10SM CLR 17/09 A3009 RMK AO2 T01680090
KPMV 230035Z AUTO 16005KT 10SM CLR 17/10 A3009 RMK AO2 T01650095
KPMV 230015Z AUTO 16004KT 10SM CLR 18/10 A3010 RMK AO2 T01750098
KPMV 222355Z AUTO 17006KT 10SM CLR 19/10 A3009 RMK AO2 T01910095 10215 20176
KPMV 222335Z AUTO 16006KT 10SM CLR 20/10 A3009 RMK AO2 T01990095
KPMV 222255Z AUTO 15007KT 10SM CLR 21/09 A3010 RMK AO2 T02100089
KPMV 222235Z AUTO 14009KT 10SM CLR 21/08 A3011 RMK AO2 T02110083
KPMV 222210Z AUTO 14007KT 10SM CLR 21/09 A3011 RMK AO2 T02120086
KPMV 222150Z AUTO 14007KT 10SM CLR 22/08 A3012 RMK AO2 T02150082
KPMV 222135Z AUTO 13008KT 10SM CLR 21/08 A3013 RMK AO2 T02120084
KPMV 222115Z AUTO 16007KT 10SM CLR 21/08 A3013 RMK AO2 T02120079
KPMV 222055Z AUTO 14004KT 10SM CLR 21/08 A3014 RMK AO2 T02100075
KPMV 222035Z AUTO 15005KT 10SM CLR 21/08 A3015 RMK AO2 T02090078
KPMV 222010Z AUTO 13007KT 10SM CLR 21/09 A3016 RMK AO2 T02050086
KPMV 221955Z AUTO 16006KT 10SM CLR 20/09 A3017 RMK AO2 T02020091
KPMV 221930Z AUTO 18008KT 150V220 10SM CLR 20/09 A3019 RMK AO2 T01950090
KPMV 221915Z AUTO 19004KT 10SM CLR 19/09 A3020 RMK AO2 T01930092
KPMV 221855Z AUTO 19007KT 10SM CLR 19/10 A3021 RMK AO2 T01920095
KPMV 221835Z AUTO 14004KT 10SM CLR 19/10 A3021 RMK AO2 T01860095
KPMV 221810Z AUTO 15006KT 10SM CLR 18/09 A3023 RMK AO2 T01790091
KPMV 221755Z AUTO 15006KT 10SM CLR 18/09 A3023 RMK AO2 T01760093 10176 20072
KPMV 221735Z AUTO 19004KT 10SM CLR 17/09 A3024 RMK AO2 T01710094
KPMV 221715Z AUTO 17006KT 10SM CLR 17/09 A3025 RMK AO2 T01650091
KPMV 221655Z AUTO 14005KT 10SM CLR 16/09 A3026 RMK AO2 T01600091
KPMV 221635Z AUTO 16006KT 10SM CLR 15/09 A3028 RMK AO2 T01530090
KPMV 221610Z AUTO 12008KT 10SM CLR 15/09 A3028 RMK AO2 T01470088
KPMV 221555Z AUTO 12006KT 10SM CLR 14/09 A3029 RMK AO2 T01420086
KPMV 221535Z AUTO 15006KT 10SM CLR 14/09 A3030 RMK AO2 T01390086
KPMV 221515Z AUTO 13008KT 10SM CLR 13/09 A3030 RMK AO2 T01310086
KPMV 221455Z AUTO 12007KT 10SM CLR 12/08 A3030 RMK AO2 T01240084
KPMV 221435Z AUTO 13010KT 10SM CLR 12/08 A3030 RMK AO2 T01190080
KPMV 221410Z AUTO 13005KT 10SM CLR 11/08 A3030 RMK AO2 T01080080
KPMV 221355Z AUTO 14006KT 10SM CLR 11/08 A3030 RMK AO2 T01050082
KPMV 221335Z AUTO 13005KT 10SM CLR 10/08 A3030 RMK AO2 T01000083